Time;durP1;ratioP1;P1;durP2;ratioP2;P2;SDS_P1;SDS_P2;PMS_P1;PMS_P2;Temp;Humidity;BMP_temperature;BMP_pressure;BME280_temperature;BME280_humidity;BME280_pressure;Samples;Min_cycle;Max_cycle;Signal;HPM_P1;HPM_P2
2021/05/25 00:00:23;;;;;;;9.60;4.10;;;;;;;14.06;54.15;99018.23;125396;1107;103063;-76
2021/05/25 00:03:12;;;;;;;;;;;;;;;13.92;54.51;99001.58;125461;1104;103126;-77
2021/05/25 00:05:45;;;;;;;5.67;2.83;;;;;;;13.78;54.65;98981.41;125765;1104;103093;-75
2021/05/25 00:08:14;;;;;;;8.63;3.33;;;;;;;13.69;54.46;98971.51;125380;1107;103025;-74
2021/05/25 00:10:42;;;;;;;9.97;3.03;;;;;;;13.64;54.76;98963.91;125453;1104;103395;-76
2021/05/25 00:13:11;;;;;;;8.97;3.23;;;;;;;13.61;54.88;98961.50;125576;1104;103049;-76
2021/05/25 00:15:39;;;;;;;6.70;3.30;;;;;;;13.62;55.39;98949.83;125424;1104;103000;-75
2021/05/25 00:18:10;;;;;;;6.27;2.93;;;;;;;13.67;55.28;98946.73;125405;1104;103139;-74
2021/05/25 00:20:38;;;;;;;7.80;3.00;;;;;;;13.68;55.54;98930.55;125505;1104;103091;-74
2021/05/25 00:23:07;;;;;;;8.73;3.40;;;;;;;13.73;55.65;98915.94;125452;1100;103099;-75
2021/05/25 00:25:35;;;;;;;9.27;3.10;;;;;;;13.77;55.56;98907.53;125525;1099;103614;-74
2021/05/25 00:28:04;;;;;;;7.03;3.20;;;;;;;13.82;55.90;98904.44;125473;1104;102994;-76
2021/05/25 00:30:33;;;;;;;7.97;3.00;;;;;;;13.81;55.51;98905.42;126226;1100;102997;-76
2021/05/25 00:33:02;;;;;;;6.57;2.80;;;;;;;13.79;55.79;98918.08;125585;1104;103202;-74
2021/05/25 00:35:39;;;;;;;5.80;2.37;;;;;;;13.79;55.98;98907.38;125449;1105;103077;-75
2021/05/25 00:38:13;;;;;;;7.67;2.37;;;;;;;13.75;55.64;98893.45;125543;1104;103222;-75
2021/05/25 00:40:41;;;;;;;4.33;2.53;;;;;;;13.73;55.91;98889.21;125407;1104;103083;-74
2021/05/25 00:43:09;;;;;;;7.63;2.90;;;;;;;13.73;56.04;98897.23;125558;1100;103008;-75
2021/05/25 00:45:38;;;;;;;3.87;2.40;;;;;;;13.73;55.97;98889.21;125588;1104;103072;-75
2021/05/25 00:48:06;;;;;;;5.53;2.50;;;;;;;13.72;56.28;98872.34;125569;1104;103021;-76
2021/05/25 00:50:36;;;;;;;7.90;2.60;;;;;;;13.76;56.56;98857.73;125532;1104;103086;-74
2021/05/25 00:53:07;;;;;;;6.10;2.40;;;;;;;13.81;56.17;98862.65;125407;1104;103091;-74
2021/05/25 00:55:40;;;;;;;5.20;2.50;;;;;;;13.85;56.66;98850.70;125555;1104;103118;-74
2021/05/25 00:58:12;;;;;;;6.23;2.50;;;;;;;13.88;56.84;98850.42;125567;1104;103125;-74
2021/05/25 01:00:46;;;;;;;6.93;2.60;;;;;;;13.90;56.78;98851.13;125549;1104;103139;-74
2021/05/25 01:03:20;;;;;;;6.13;2.60;;;;;;;13.93;56.93;98853.53;125400;1105;103610;-76
2021/05/25 01:05:51;;;;;;;5.07;2.50;;;;;;;13.97;56.86;98856.77;125380;1107;102994;-74
2021/05/25 01:08:21;;;;;;;4.00;2.67;;;;;;;13.95;56.69;98845.36;125331;1107;103100;-76
2021/05/25 01:10:53;;;;;;;5.27;2.57;;;;;;;13.88;56.87;98846.89;125345;1100;103003;-73
2021/05/25 01:13:25;;;;;;;5.70;2.68;;;;;;;13.89;57.12;98838.75;125325;1107;103122;-74
2021/05/25 01:15:59;;;;;;;5.30;2.90;;;;;;;13.92;57.22;98843.82;125405;1107;103072;-75
2021/05/25 01:18:27;;;;;;;7.90;2.87;;;;;;;13.92;57.10;98835.80;125362;1107;103116;-76
2021/05/25 01:20:55;;;;;;;5.67;2.50;;;;;;;13.91;56.91;98823.41;125418;1107;103000;-77
2021/05/25 01:23:24;;;;;;;6.47;3.20;;;;;;;13.91;57.41;98811.86;125445;1100;102997;-75
2021/05/25 01:25:52;;;;;;;8.97;3.23;;;;;;;13.92;57.48;98802.86;125418;1107;103008;-75
2021/05/25 01:28:21;;;;;;;5.57;2.93;;;;;;;13.93;57.43;98802.73;125393;1100;103073;-74
2021/05/25 01:30:54;;;;;;;5.77;2.53;;;;;;;13.90;57.24;98805.69;125441;1100;103096;-73
2021/05/25 01:33:28;;;;;;;9.13;2.87;;;;;;;13.88;57.40;98793.42;125382;1107;103027;-74
2021/05/25 01:36:00;;;;;;;6.27;2.40;;;;;;;13.86;57.22;98812.29;125361;1107;103088;-74
2021/05/25 01:38:28;;;;;;;5.10;2.50;;;;;;;13.73;57.29;98807.22;125385;1107;103011;-75
2021/05/25 01:40:57;;;;;;;5.73;2.63;;;;;;;13.64;57.65;98800.02;125353;1100;103078;-74
2021/05/25 01:43:27;;;;;;;4.73;2.80;;;;;;;13.59;57.50;98805.78;125370;1107;103054;-75
2021/05/25 01:45:55;;;;;;;4.90;2.50;;;;;;;13.55;57.79;98801.70;125410;1107;103003;-75
2021/05/25 01:48:26;;;;;;;7.73;2.53;;;;;;;13.47;58.19;98794.34;125399;1107;103078;-75
2021/05/25 01:50:55;;;;;;;5.33;2.30;;;;;;;13.39;58.12;98778.98;125425;1107;103237;-77
2021/05/25 01:53:31;;;;;;;6.07;2.50;;;;;;;13.36;58.42;98779.25;125356;1107;103024;-75
2021/05/25 01:56:02;;;;;;;3.50;2.30;;;;;;;13.36;58.45;98781.92;125364;1100;103022;-76
2021/05/25 01:58:34;;;;;;;4.47;2.63;;;;;;;13.34;58.19;98775.04;125414;1100;103124;-76
2021/05/25 02:01:11;;;;;;;6.40;2.90;;;;;;;13.33;58.59;98759.99;125479;1100;103208;-75
2021/05/25 02:03:43;;;;;;;5.47;2.63;;;;;;;13.34;58.74;98753.67;125446;1107;103220;-74
2021/05/25 02:06:11;;;;;;;6.93;3.43;;;;;;;13.33;59.16;98755.48;125357;1105;103064;-75
2021/05/25 02:08:42;;;;;;;4.70;2.50;;;;;;;13.26;58.87;98754.33;125520;1100;102993;-75
2021/05/25 02:11:11;;;;;;;5.17;2.50;;;;;;;13.22;59.37;98766.30;125399;1100;103175;-74
2021/05/25 02:13:42;;;;;;;8.57;2.70;;;;;;;13.14;59.45;98760.78;125322;1107;103172;-75
2021/05/25 02:16:13;;;;;;;7.55;2.70;;;;;;;13.09;59.59;98762.03;125497;1104;103004;-74
2021/05/25 02:18:46;;;;;;;6.50;3.10;;;;;;;13.07;59.29;98747.11;125242;1105;103055;-74
2021/05/25 02:21:20;;;;;;;12.53;5.53;;;;;;;13.06;59.51;98751.62;125401;1107;103186;-75
2021/05/25 02:23:51;;;;;;;14.23;5.23;;;;;;;13.03;59.76;98741.20;125417;1107;103104;-75
2021/05/25 02:26:22;;;;;;;11.77;4.83;;;;;;;13.05;59.87;98747.27;125499;1104;103084;-73
2021/05/25 02:28:50;;;;;;;13.70;5.80;;;;;;;13.02;59.87;98739.52;125429;1107;103133;-74
2021/05/25 02:31:18;;;;;;;16.17;5.63;;;;;;;13.00;60.13;98735.31;125544;1100;103095;-75
2021/05/25 02:33:47;;;;;;;14.80;5.20;;;;;;;12.96;60.39;98724.04;125383;1100;103583;-75
2021/05/25 02:36:15;;;;;;;13.50;5.20;;;;;;;12.95;60.30;98730.36;126094;1099;103177;-75
2021/05/25 02:38:43;;;;;;;14.07;4.97;;;;;;;12.97;60.69;98720.39;125361;1099;103000;-75
2021/05/25 02:41:11;;;;;;;13.50;4.93;;;;;;;13.01;60.52;98729.82;125541;1104;103120;-77
2021/05/25 02:43:40;;;;;;;13.17;5.43;;;;;;;13.04;60.70;98731.39;125425;1105;103077;-78
2021/05/25 02:46:08;;;;;;;13.47;5.40;;;;;;;13.03;60.69;98719.84;125504;1104;103090;-78
2021/05/25 02:48:36;;;;;;;17.30;5.80;;;;;;;13.04;60.71;98713.53;125521;1104;103117;-73
2021/05/25 02:51:05;;;;;;;13.50;6.03;;;;;;;13.09;60.85;98713.11;125471;1104;103011;-76
2021/05/25 02:53:35;;;;;;;17.00;6.30;;;;;;;13.13;60.77;98700.34;125479;1104;103093;-74
2021/05/25 02:56:04;;;;;;;19.73;5.90;;;;;;;13.19;60.76;98703.30;125517;1099;103056;-74
2021/05/25 02:58:35;;;;;;;21.83;5.87;;;;;;;13.24;61.06;98692.23;125384;1107;103096;-73
2021/05/25 03:01:04;;;;;;;15.25;5.65;;;;;;;13.28;61.03;98655.39;125498;1100;103129;-76
2021/05/25 03:03:34;;;;;;;16.03;6.40;;;;;;;13.32;60.92;98648.79;125659;1104;103466;-75
2021/05/25 03:06:03;;;;;;;18.03;5.63;;;;;;;13.35;61.04;98643.17;125552;1104;102997;-74
2021/05/25 03:08:34;;;;;;;12.23;4.47;;;;;;;13.38;61.26;98648.23;125470;1100;103139;-74
2021/05/25 03:11:02;;;;;;;9.33;4.30;;;;;;;13.39;61.18;98656.09;125502;1104;103090;-75
2021/05/25 03:13:33;;;;;;;6.40;3.23;;;;;;;13.42;61.04;98649.67;125538;1104;103445;-73
2021/05/25 03:16:04;;;;;;;8.50;3.03;;;;;;;13.45;61.42;98601.28;125466;1104;102991;-73
2021/05/25 03:18:33;;;;;;;7.63;3.10;;;;;;;13.48;61.34;98595.66;125365;1105;103094;-74
2021/05/25 03:21:01;;;;;;;5.57;2.63;;;;;;;13.51;61.04;98639.97;125512;1104;103199;-76
2021/05/25 03:23:30;;;;;;;4.33;2.70;;;;;;;13.50;61.40;98652.47;125440;1104;103059;-73
2021/05/25 03:26:02;;;;;;;5.83;2.80;;;;;;;13.51;61.38;98638.13;125549;1104;103091;-75
2021/05/25 03:28:33;;;;;;;3.70;2.80;;;;;;;13.54;61.28;98642.36;125404;1107;103090;-74
2021/05/25 03:31:06;;;;;;;8.30;2.57;;;;;;;13.57;61.32;98646.56;125389;1107;103024;-75
2021/05/25 03:33:35;;;;;;;4.30;2.53;;;;;;;13.54;61.35;98648.53;125279;1107;103074;-75
2021/05/25 03:36:04;;;;;;;7.73;2.70;;;;;;;13.53;61.51;98646.02;125365;1100;103158;-75
2021/05/25 03:38:35;;;;;;;7.97;2.77;;;;;;;13.53;61.28;98646.84;125568;1100;103024;-75
2021/05/25 03:41:06;;;;;;;9.23;3.83;;;;;;;13.53;61.44;98640.67;125595;1104;103085;-76
2021/05/25 03:43:34;;;;;;;5.63;2.70;;;;;;;13.55;61.52;98636.86;125434;1107;103190;-75
2021/05/25 03:46:03;;;;;;;8.10;2.73;;;;;;;13.58;61.62;98649.11;125410;1107;103102;-76
2021/05/25 03:48:31;;;;;;;7.20;2.53;;;;;;;13.59;61.67;98666.83;125455;1099;103068;-75
2021/05/25 03:50:59;;;;;;;5.53;2.90;;;;;;;13.61;61.76;98694.26;125379;1100;103224;-74
2021/05/25 03:53:31;;;;;;;5.80;3.43;;;;;;;13.63;61.64;98723.50;125554;1100;103096;-73
2021/05/25 03:56:17;;;;;;;11.33;3.70;;;;;;;13.64;61.69;98763.47;125327;1105;103124;-74
2021/05/25 03:58:53;;;;;;;10.57;3.67;;;;;;;13.65;62.11;98769.64;125351;1105;103094;-74
2021/05/25 04:01:26;;;;;;;11.40;3.83;;;;;;;13.65;62.08;98799.03;125535;1104;103053;-75
2021/05/25 04:03:58;;;;;;;;;;;;;;;13.63;62.25;98812.55;125438;1105;103085;-72
2021/05/25 04:06:27;;;;;;;8.17;3.20;;;;;;;13.59;61.86;98815.62;125502;1104;102994;-69
2021/05/25 04:08:55;;;;;;;8.27;3.40;;;;;;;13.58;62.05;98811.25;125511;1104;103009;-72
2021/05/25 04:11:23;;;;;;;10.13;3.77;;;;;;;13.60;62.25;98799.46;125456;1100;103150;-70
2021/05/25 04:13:52;;;;;;;9.17;4.07;;;;;;;13.62;62.21;98792.16;125533;1104;103132;-72
2021/05/25 04:16:20;;;;;;;10.97;3.90;;;;;;;13.65;62.19;98789.17;125345;1107;103001;-70
2021/05/25 04:18:51;;;;;;;11.10;3.73;;;;;;;13.67;62.43;98789.88;125517;1100;103094;-69
2021/05/25 04:21:21;;;;;;;;;;;;;;;13.67;63.01;98811.27;125549;1104;103000;-71
2021/05/25 04:23:52;;;;;;;10.07;3.97;;;;;;;13.67;62.54;98835.31;125408;1107;103072;-70
2021/05/25 04:26:21;;;;;;;11.13;3.70;;;;;;;13.68;62.54;98826.31;125376;1107;103103;-71
2021/05/25 04:28:49;;;;;;;10.00;4.40;;;;;;;13.68;62.60;98828.16;125514;1104;103215;-71
2021/05/25 04:31:17;;;;;;;12.65;3.95;;;;;;;13.68;62.75;98855.72;125404;1107;103102;-70
2021/05/25 04:33:45;;;;;;;11.20;4.20;;;;;;;13.69;62.74;98872.61;125464;1104;103034;-72
2021/05/25 04:36:17;;;;;;;9.63;3.80;;;;;;;13.69;62.56;98881.47;125635;1104;103089;-71
2021/05/25 04:38:46;;;;;;;9.70;3.63;;;;;;;13.66;62.54;98872.89;125238;1107;103103;-71
2021/05/25 04:41:15;;;;;;;11.60;4.20;;;;;;;13.67;62.92;98875.41;125137;1104;103147;-71
2021/05/25 04:43:43;;;;;;;13.55;4.20;;;;;;;13.65;62.53;98847.97;125179;1104;103143;-71
2021/05/25 04:46:11;;;;;;;10.80;3.97;;;;;;;13.66;62.85;98854.18;125165;1107;103253;-71
2021/05/25 04:48:39;;;;;;;14.20;4.37;;;;;;;13.67;62.98;98851.35;125116;1107;103026;-71
2021/05/25 04:51:08;;;;;;;10.33;4.17;;;;;;;13.70;62.95;98834.22;125164;1107;103054;-71
2021/05/25 04:53:36;;;;;;;11.95;4.50;;;;;;;13.69;62.99;98828.01;125127;1107;103116;-71
2021/05/25 04:56:05;;;;;;;7.50;3.87;;;;;;;13.71;63.04;98822.55;125342;1107;103173;-73
2021/05/25 04:58:33;;;;;;;13.00;4.27;;;;;;;13.76;63.17;98812.28;125443;1107;103015;-70
2021/05/25 05:01:02;;;;;;;14.03;4.47;;;;;;;13.78;63.26;98801.44;125396;1107;103024;-71
2021/05/25 05:03:31;;;;;;;13.93;5.20;;;;;;;13.80;63.12;98783.44;125454;1107;103158;-71
2021/05/25 05:05:59;;;;;;;14.57;5.00;;;;;;;13.83;63.30;98770.66;125406;1107;103097;-71
2021/05/25 05:08:27;;;;;;;15.93;5.00;;;;;;;13.81;63.32;98747.70;125467;1107;102997;-70
2021/05/25 05:10:56;;;;;;;14.27;5.20;;;;;;;13.79;63.24;98728.28;125423;1107;103003;-71
2021/05/25 05:13:24;;;;;;;11.47;4.60;;;;;;;13.79;63.29;98705.09;125416;1107;102996;-71
2021/05/25 05:15:52;;;;;;;14.07;5.10;;;;;;;13.79;63.37;98697.06;125402;1107;103221;-75
2021/05/25 05:18:21;;;;;;;10.50;4.47;;;;;;;13.77;63.35;98724.91;125414;1107;103585;-73
2021/05/25 05:20:49;;;;;;;11.77;4.53;;;;;;;13.77;63.53;98711.54;125411;1107;103128;-71
2021/05/25 05:23:17;;;;;;;14.33;4.90;;;;;;;13.78;63.48;98722.11;125425;1107;103461;-70
2021/05/25 05:25:46;;;;;;;15.57;5.13;;;;;;;13.81;64.11;98718.30;125452;1107;103599;-70
2021/05/25 05:28:15;;;;;;;15.13;6.13;;;;;;;13.84;63.72;98718.02;125445;1100;103010;-70
2021/05/25 05:30:43;;;;;;;14.50;6.97;;;;;;;13.86;63.64;98724.06;125439;1107;103133;-70
2021/05/25 05:33:11;;;;;;;11.23;4.70;;;;;;;13.83;63.68;98740.39;125408;1107;103197;-70
2021/05/25 05:35:40;;;;;;;11.00;4.43;;;;;;;13.65;63.53;98751.76;125407;1107;103137;-72
2021/05/25 05:38:11;;;;;;;12.53;5.13;;;;;;;13.57;63.67;98754.31;125359;1107;103154;-71
2021/05/25 05:40:40;;;;;;;12.37;4.87;;;;;;;13.53;63.57;98764.41;125415;1107;103051;-71
2021/05/25 05:43:08;;;;;;;12.67;4.73;;;;;;;13.51;63.88;98765.55;125432;1107;103000;-71
2021/05/25 05:45:38;;;;;;;10.57;5.20;;;;;;;13.47;63.75;98762.28;125388;1100;103573;-72
2021/05/25 05:48:06;;;;;;;13.53;5.50;;;;;;;13.49;64.09;98772.84;125412;1107;103081;-72
2021/05/25 05:50:35;;;;;;;15.03;5.53;;;;;;;13.51;64.38;98753.02;125347;1100;103227;-72
2021/05/25 05:53:04;;;;;;;13.33;5.57;;;;;;;13.51;64.19;98734.31;125405;1107;102972;-72
2021/05/25 05:55:32;;;;;;;26.50;14.70;;;;;;;13.53;64.37;98727.00;125395;1099;103089;-72
2021/05/25 05:58:01;;;;;;;19.00;7.77;;;;;;;13.62;64.54;98713.80;125364;1107;103101;-71
2021/05/25 06:00:29;;;;;;;15.73;6.47;;;;;;;13.70;64.58;98719.29;125376;1107;103104;-71
2021/05/25 06:02:58;;;;;;;14.67;5.90;;;;;;;13.78;64.67;98739.96;125333;1108;103109;-69
2021/05/25 06:05:27;;;;;;;11.13;5.13;;;;;;;13.86;64.70;98728.59;125365;1107;103083;-71
2021/05/25 06:07:55;;;;;;;16.40;6.03;;;;;;;13.92;64.76;98728.85;125410;1107;103091;-71
2021/05/25 06:10:28;;;;;;;14.10;5.07;;;;;;;13.99;64.88;98762.07;125404;1100;103026;-73
2021/05/25 06:12:57;;;;;;;16.38;5.30;;;;;;;14.02;64.90;98760.09;125503;1104;103029;-70
2021/05/25 06:15:25;;;;;;;14.33;6.40;;;;;;;14.06;64.80;98753.48;125497;1104;103023;-73
2021/05/25 06:17:54;;;;;;;11.87;4.80;;;;;;;14.11;64.90;98749.39;125450;1107;103178;-71
2021/05/25 06:20:22;;;;;;;16.50;5.90;;;;;;;14.17;65.01;98758.66;125599;1104;103190;-71
2021/05/25 06:22:50;;;;;;;14.77;5.60;;;;;;;14.21;65.32;98757.39;125553;1099;103096;-72
2021/05/25 06:25:19;;;;;;;14.27;5.80;;;;;;;14.25;65.02;98742.75;125482;1099;103116;-71
2021/05/25 06:27:47;;;;;;;13.83;5.77;;;;;;;14.29;65.16;98741.48;125254;1107;103189;-72
2021/05/25 06:30:16;;;;;;;11.50;5.50;;;;;;;14.32;65.05;98745.68;125333;1107;103130;-71
2021/05/25 06:32:45;;;;;;;11.23;5.03;;;;;;;14.35;65.18;98745.39;125504;1104;103101;-72
2021/05/25 06:35:16;;;;;;;12.03;5.07;;;;;;;14.40;65.06;98761.03;125349;1107;104134;-72
2021/05/25 06:37:45;;;;;;;10.80;4.97;;;;;;;14.27;64.91;98758.64;125463;1104;103099;-70
2021/05/25 06:40:15;;;;;;;15.03;5.37;;;;;;;14.17;65.22;98729.23;125504;1104;103177;-71
2021/05/25 06:42:43;;;;;;;15.63;5.83;;;;;;;14.18;65.32;98708.70;125554;1104;103035;-71
2021/05/25 06:45:12;;;;;;;10.57;4.50;;;;;;;14.20;65.26;98738.83;125268;1107;103094;-71
2021/05/25 06:47:40;;;;;;;12.10;5.17;;;;;;;14.16;65.39;98732.07;125496;1104;102998;-70
2021/05/25 06:50:10;;;;;;;10.93;5.37;;;;;;;14.16;65.39;98746.27;125496;1104;103682;-70
2021/05/25 06:52:38;;;;;;;12.37;5.00;;;;;;;14.10;65.23;98747.70;125528;1100;103264;-69
2021/05/25 06:55:11;;;;;;;10.23;4.30;;;;;;;14.02;65.08;98747.55;125438;1104;102998;-70
2021/05/25 06:57:46;;;;;;;11.50;4.93;;;;;;;14.01;65.52;98742.37;125449;1104;102996;-70
2021/05/25 07:00:15;;;;;;;13.50;5.33;;;;;;;14.03;65.63;98735.88;125529;1104;102997;-70
2021/05/25 07:02:44;;;;;;;13.27;5.60;;;;;;;14.09;65.62;98734.45;125470;1104;103130;-69
2021/05/25 07:05:12;;;;;;;12.43;5.17;;;;;;;14.16;65.80;98738.25;125451;1104;103022;-69
2021/05/25 07:07:41;;;;;;;14.60;5.87;;;;;;;14.22;65.85;98740.36;125347;1105;103153;-70
2021/05/25 07:10:09;;;;;;;17.20;6.07;;;;;;;14.26;65.98;98719.53;125372;1104;103109;-69
2021/05/25 07:12:39;;;;;;;11.53;5.40;;;;;;;14.32;65.94;98720.77;125636;1104;103054;-71
2021/05/25 07:15:11;;;;;;;12.73;5.40;;;;;;;14.36;66.04;98714.15;125412;1104;103000;-70
2021/05/25 07:17:56;;;;;;;15.63;6.73;;;;;;;14.39;66.05;98714.69;125399;1104;103186;-70
2021/05/25 07:20:26;;;;;;;15.50;6.57;;;;;;;14.43;65.99;98715.27;125471;1104;103627;-70
2021/05/25 07:22:55;;;;;;;16.80;6.75;;;;;;;14.47;66.03;98718.48;125473;1104;103577;-70
2021/05/25 07:25:27;;;;;;;18.23;8.17;;;;;;;14.50;66.13;98721.70;125632;1100;103021;-69
2021/05/25 07:27:57;;;;;;;19.23;8.63;;;;;;;14.55;66.24;98710.58;125415;1105;103107;-70
2021/05/25 07:30:26;;;;;;;19.13;8.63;;;;;;;14.59;66.21;98707.45;125466;1104;103096;-69
2021/05/25 07:32:54;;;;;;;15.57;6.97;;;;;;;14.64;66.13;98687.43;125362;1104;103075;-69
2021/05/25 07:35:22;;;;;;;13.27;5.93;;;;;;;14.66;66.19;98694.34;125505;1104;103123;-70
2021/05/25 07:37:51;;;;;;;16.07;6.17;;;;;;;14.65;66.28;98700.69;125489;1100;102995;-70
2021/05/25 07:40:21;;;;;;;17.80;6.87;;;;;;;14.66;66.29;98701.52;125521;1100;103032;-71
2021/05/25 07:42:50;;;;;;;14.90;6.57;;;;;;;14.66;66.50;98694.34;125361;1107;103126;-70
2021/05/25 07:45:18;;;;;;;17.43;7.47;;;;;;;14.69;66.27;98699.41;125393;1107;103475;-70
2021/05/25 07:47:48;;;;;;;14.50;6.15;;;;;;;14.71;66.19;98691.24;125414;1107;102998;-69
2021/05/25 07:50:17;;;;;;;15.67;6.77;;;;;;;14.76;66.34;98688.97;125432;1107;103003;-70
2021/05/25 07:52:50;;;;;;;15.27;7.07;;;;;;;14.82;66.43;98691.05;125359;1107;103109;-70
2021/05/25 07:55:26;;;;;;;17.83;7.30;;;;;;;14.91;66.41;98704.52;125374;1107;103681;-70
2021/05/25 07:57:57;;;;;;;17.03;6.87;;;;;;;14.98;66.41;98709.16;125382;1099;102995;-73
2021/05/25 08:00:29;;;;;;;17.30;6.75;;;;;;;15.08;66.60;98706.42;125390;1107;103122;-70
2021/05/25 08:03:00;;;;;;;18.63;7.67;;;;;;;15.18;66.66;98703.67;125378;1107;103158;-69
2021/05/25 08:05:32;;;;;;;15.73;7.00;;;;;;;15.27;66.59;98699.27;125384;1100;103227;-70
2021/05/25 08:08:03;;;;;;;16.13;7.17;;;;;;;15.35;66.74;98691.30;125350;1107;103071;-70
2021/05/25 08:10:32;;;;;;;79.90;57.43;;;;;;;15.44;66.61;98686.88;125408;1099;103000;-72
2021/05/25 08:13:03;;;;;;;29.50;16.30;;;;;;;15.53;66.64;98685.94;125361;1107;103468;-73
2021/05/25 08:15:34;;;;;;;22.23;8.73;;;;;;;15.65;66.79;98681.22;125355;1107;103110;-69
2021/05/25 08:20:37;;;;;;;16.80;6.77;;;;;;;15.90;66.80;98684.13;125348;1107;103126;-70
2021/05/25 08:23:27;;;;;;;13.43;6.40;;;;;;;16.08;66.77;98676.05;125352;1107;103054;-70
2021/05/25 08:25:56;;;;;;;17.13;6.07;;;;;;;16.31;66.55;98686.24;125367;1107;103041;-72
2021/05/25 08:28:26;;;;;;;12.53;5.90;;;;;;;16.42;66.70;98685.16;125356;1100;103099;-72
2021/05/25 08:30:58;;;;;;;11.70;5.17;;;;;;;16.60;66.85;98680.55;125384;1100;103131;-70
2021/05/25 08:33:27;;;;;;;12.00;5.47;;;;;;;16.78;66.71;98680.46;125288;1107;103011;-70
2021/05/25 08:35:55;;;;;;;9.83;4.53;;;;;;;16.90;66.79;98681.04;125350;1107;103148;-71
2021/05/25 08:38:25;;;;;;;10.57;4.60;;;;;;;16.90;66.51;98675.66;125314;1104;103139;-72
2021/05/25 08:40:55;;;;;;;7.97;4.00;;;;;;;16.94;66.41;98676.99;125523;1104;103091;-72
2021/05/25 08:43:24;;;;;;;6.77;3.73;;;;;;;16.92;66.62;98676.31;125540;1104;102998;-71
2021/05/25 08:45:52;;;;;;;9.50;4.50;;;;;;;16.92;66.23;98676.31;125476;1104;103003;-70
2021/05/25 08:48:21;;;;;;;10.03;4.17;;;;;;;16.88;66.28;98672.30;125432;1104;103023;-70
2021/05/25 08:50:58;;;;;;;8.90;4.20;;;;;;;16.96;66.50;98663.45;125333;1107;103117;-71
2021/05/25 08:53:29;;;;;;;9.90;4.60;;;;;;;17.12;66.54;98665.34;125414;1107;103020;-71
2021/05/25 08:56:01;;;;;;;12.33;4.50;;;;;;;17.31;66.48;98668.76;125535;1100;103062;-70
2021/05/25 08:58:29;;;;;;;9.87;4.53;;;;;;;17.56;66.55;98662.39;125513;1100;103016;-70
2021/05/25 09:00:59;;;;;;;11.97;4.80;;;;;;;17.93;66.70;98656.68;125486;1105;103097;-70
2021/05/25 09:03:30;;;;;;;16.33;4.93;;;;;;;18.06;66.48;98664.27;125500;1104;103150;-69
2021/05/25 09:06:07;;;;;;;13.17;5.37;;;;;;;18.18;66.33;98656.67;125553;1104;103122;-70
2021/05/25 09:08:38;;;;;;;15.73;5.10;;;;;;;18.28;66.58;98666.27;125445;1104;103173;-70
2021/05/25 09:11:10;;;;;;;18.43;4.73;;;;;;;18.36;66.42;98659.16;125401;1100;103118;-70
2021/05/25 09:13:38;;;;;;;13.33;4.57;;;;;;;18.41;66.40;98662.17;125358;1107;103177;-70
2021/05/25 09:16:10;;;;;;;11.20;4.30;;;;;;;18.48;66.68;98668.55;125586;1104;103473;-70
2021/05/25 09:18:47;;;;;;;14.50;5.43;;;;;;;18.53;66.37;98668.06;125340;1104;103069;-70
2021/05/25 09:21:35;;;;;;;17.73;7.50;;;;;;;18.56;66.58;98673.92;125518;1100;103097;-71
2021/05/25 09:24:04;;;;;;;11.87;5.00;;;;;;;18.56;66.01;98670.38;125483;1104;103111;-71
2021/05/25 09:26:39;;;;;;;10.13;3.97;;;;;;;18.58;66.30;98674.59;125432;1104;103024;-70
2021/05/25 09:29:09;;;;;;;9.13;3.70;;;;;;;18.49;65.85;98678.31;125536;1104;103003;-69
2021/05/25 09:31:45;;;;;;;10.67;3.73;;;;;;;18.43;66.21;98679.86;125299;1107;103104;-70
2021/05/25 09:34:20;;;;;;;10.50;4.53;;;;;;;18.46;66.18;98670.58;125480;1104;103049;-70
2021/05/25 09:37:03;;;;;;;7.08;3.80;;;;;;;18.53;66.14;98676.96;125544;1104;103020;-71
2021/05/25 09:39:40;;;;;;;11.60;4.73;;;;;;;18.64;66.29;98674.92;125573;1104;102996;-70
2021/05/25 09:42:14;;;;;;;12.30;4.17;;;;;;;18.72;66.15;98669.51;125493;1104;103029;-70
2021/05/25 09:45:00;;;;;;;7.17;3.60;;;;;;;18.81;66.31;98676.52;125609;1104;103072;-72
2021/05/25 09:47:53;;;;;;;11.73;4.00;;;;;;;18.94;65.82;98670.59;125406;1100;103093;-71
2021/05/25 09:50:24;;;;;;;15.35;4.18;;;;;;;19.06;65.97;98668.38;125537;1104;103027;-71
2021/05/25 09:53:17;;;;;;;9.53;3.97;;;;;;;19.16;65.83;98668.14;125517;1104;103096;-70
2021/05/25 09:55:53;;;;;;;;;;;;;;;19.24;65.56;98667.25;125561;1104;103059;-71
2021/05/25 09:58:33;;;;;;;9.30;4.23;;;;;;;19.36;66.02;98668.53;125517;1100;103254;-70
2021/05/25 10:01:07;;;;;;;9.87;4.77;;;;;;;19.48;65.88;98675.20;125504;1100;103000;-69
2021/05/25 10:03:47;;;;;;;13.38;4.35;;;;;;;19.59;65.60;98678.48;125414;1104;103069;-70
2021/05/25 10:06:18;;;;;;;12.90;4.33;;;;;;;19.63;65.64;98674.41;125432;1100;103660;-69
2021/05/25 10:08:49;;;;;;;11.43;4.57;;;;;;;19.69;65.72;98675.56;125363;1099;103055;-70
2021/05/25 10:11:20;;;;;;;11.90;5.30;;;;;;;19.75;65.72;98680.24;125375;1107;103030;-71
2021/05/25 10:13:50;;;;;;;11.83;5.37;;;;;;;19.82;65.50;98683.88;125485;1104;103094;-70
2021/05/25 10:16:28;;;;;;;13.20;5.57;;;;;;;19.92;65.44;98680.98;125296;1107;103020;-68
2021/05/25 10:19:42;;;;;;;11.85;4.90;;;;;;;19.97;65.65;98673.15;125484;1104;103579;-70
2021/05/25 10:21:51;;;;;;;10.73;4.53;;;;;;;20.03;65.59;98672.42;125303;1100;103027;-70
2021/05/25 10:24:20;;;;;;;8.97;4.87;;;;;;;20.09;65.47;98673.57;125367;1104;103094;-70
2021/05/25 10:26:52;;;;;;;13.80;5.27;;;;;;;20.15;65.53;98680.09;125375;1107;102997;-70
2021/05/25 10:29:20;;;;;;;13.80;5.83;;;;;;;20.21;65.67;98676.66;125357;1100;103024;-71
2021/05/25 10:31:57;;;;;;;10.40;4.80;;;;;;;20.27;65.30;98673.23;125286;1107;103083;-69
2021/05/25 10:34:33;;;;;;;11.70;5.30;;;;;;;20.33;65.27;98677.05;125416;1104;102997;-68
2021/05/25 10:37:03;;;;;;;12.80;4.80;;;;;;;20.38;65.31;98675.45;125322;1107;103110;-72
2021/05/25 10:39:40;;;;;;;10.83;4.70;;;;;;;20.42;64.97;98670.54;125350;1107;103097;-70
2021/05/25 10:42:25;;;;;;;11.43;5.10;;;;;;;20.47;65.24;98678.08;125596;1104;103022;-69
2021/05/25 10:45:10;;;;;;;11.63;5.20;;;;;;;20.52;65.09;98679.22;125548;1104;103320;-69
2021/05/25 10:47:56;;;;;;;10.97;4.30;;;;;;;20.60;64.80;98680.13;125350;1100;103000;-70
2021/05/25 10:50:31;;;;;;;12.90;4.93;;;;;;;20.65;64.61;98678.56;125477;1104;103072;-69
2021/05/25 10:53:01;;;;;;;10.03;4.67;;;;;;;20.71;64.72;98678.84;125354;1108;104622;-69
2021/05/25 10:55:45;;;;;;;10.23;4.30;;;;;;;20.76;65.19;98682.64;125276;1105;103473;-69
2021/05/25 10:58:35;;;;;;;11.70;4.13;;;;;;;20.82;64.70;98678.38;125570;1104;103140;-69
2021/05/25 11:01:08;;;;;;;10.95;4.50;;;;;;;20.85;64.37;98679.88;125263;1107;103695;-70
2021/05/25 11:03:37;;;;;;;9.13;3.63;;;;;;;20.84;64.76;98667.39;125458;1099;103028;-69
2021/05/25 11:06:06;;;;;;;8.43;4.03;;;;;;;20.83;64.66;98666.54;125535;1100;103189;-70
2021/05/25 11:08:39;;;;;;;10.03;4.20;;;;;;;20.80;64.43;98670.47;125348;1104;103131;-71
2021/05/25 11:11:15;;;;;;;10.33;4.27;;;;;;;20.73;64.41;98676.80;125598;1100;103125;-71
2021/05/25 11:13:51;;;;;;;10.07;4.20;;;;;;;20.65;64.44;98678.56;125566;1104;102998;-70
2021/05/25 11:16:29;;;;;;;11.93;4.50;;;;;;;20.57;64.29;98669.72;125558;1104;103096;-70
2021/05/25 11:19:06;;;;;;;12.73;4.40;;;;;;;20.49;64.23;98670.63;125379;1104;103111;-70
2021/05/25 11:24:36;;;;;;;13.77;4.37;;;;;;;20.31;63.80;98665.59;125408;1100;103134;-68
2021/05/25 11:27:08;;;;;;;9.23;4.53;;;;;;;20.24;64.01;98665.49;125509;1104;103053;-70
2021/05/25 11:30:04;;;;;;;11.90;4.37;;;;;;;20.16;64.00;98670.97;125342;1100;103155;-70
2021/05/25 11:32:43;;;;;;;11.00;4.87;;;;;;;20.05;63.90;98674.95;125496;1104;103068;-70
2021/05/25 11:35:22;;;;;;;12.47;5.07;;;;;;;19.96;64.08;98681.44;125355;1107;103107;-69